Big Bear City, CA

6:22 AM PDT on May 26, 2017 (GMT -0700)
Big Bear City

Weather History for KL35 - May, 2014

Change the Weather History Date:

Monday, May 26, 2014

  Actual Average (KBUO) Record (KBUO)
Temperature  
Mean Temperature 58 °F -  
Max Temperature 75 °F 78 °F 87 °F (1997)
Min Temperature 41 °F 52 °F 50 °F (1998)
Degree Days  
Heating Degree Days 7    
Growing Degree Days 8 (Base 50)    
Moisture  
Dew Point 35 °F    
Average Humidity 44    
Maximum Humidity 76    
Minimum Humidity 21    
Precipitation  
Precipitation 0.00 in - - ()
Sea Level Pressure  
Sea Level Pressure 30.25 in    
Wind  
Wind Speed 3 mph (West)    
Max Wind Speed 16 mph    
Max Gust Speed 26 mph    
Visibility 10 miles    
Events      
Averages and records for this station are not official NWS values.
T = Trace of Precipitation, MM = Missing Value Source: NWS Daily Summary

Daily Weather History Graph

Daily Weather History Graph

Search for Another Location

Airport or City:

Trip Planner

Search our weather history database for the weather conditions in past years. The results will help you decide how hot, cold, wet, or windy it might be!

Date:

Astronomy

May. 26, 2014 Rise Set
Actual Time 5:38 AM PDT 7:50 PM PDT
Civil Twilight 5:10 AM PDT 8:19 PM PDT
Nautical Twilight 4:35 AM PDT 8:53 PM PDT
Astronomical Twilight 3:57 AM PDT 9:31 PM PDT
Moon 4:17 AM PDT 6:02 PM PDT
Length of Visible Light 15h 08m
Length of Day
14h 11m
Waning Crescent, 4% of the Moon is Illuminated
May 26
Waning Crescent
May 28
New
Jun 5
First Quarter
Jun 12
Full
Jun 19
Last Quarter

Hourly Weather History & Observations

Time (PDT) Temp. Windchill Dew Point Humidity Pressure Visibility Wind Dir Wind Speed Gust Speed Precip Events Conditions
12:15 AM 46.4 °F - 35.6 °F 66% 30.22 in 10.0 mi Calm Calm - N/A   Clear
12:35 AM 46.4 °F - 35.6 °F 66% 30.22 in 10.0 mi Calm Calm - N/A   Clear
12:55 AM 46.4 °F - 35.6 °F 66% 30.22 in 10.0 mi Calm Calm - N/A   Clear
1:15 AM 44.6 °F - 35.6 °F 71% 30.22 in 10.0 mi Calm Calm - N/A   Clear
1:35 AM 44.6 °F - 35.6 °F 71% 30.22 in 10.0 mi Calm Calm - N/A   Clear
1:55 AM 44.6 °F - 35.6 °F 71% 30.22 in 10.0 mi Calm Calm - N/A   Clear
2:15 AM 44.6 °F - 35.6 °F 71% 30.22 in 10.0 mi Calm Calm - N/A   Clear
2:35 AM 42.8 °F - 35.6 °F 76% 30.21 in 10.0 mi Calm Calm - N/A   Clear
2:55 AM 42.8 °F - 35.6 °F 76% 30.22 in 10.0 mi Calm Calm - N/A   Clear
3:15 AM 42.8 °F - 33.8 °F 70% 30.22 in 10.0 mi Calm Calm - N/A   Clear
3:35 AM 42.8 °F - 35.6 °F 76% 30.22 in 10.0 mi Calm Calm - N/A   Clear
3:55 AM 41.0 °F - 33.8 °F 76% 30.22 in 10.0 mi Calm Calm - N/A   Clear
4:15 AM 41.0 °F - 33.8 °F 76% 30.22 in 10.0 mi Calm Calm - N/A   Clear
4:35 AM 41.0 °F - 33.8 °F 76% 30.22 in 10.0 mi Calm Calm - N/A   Clear
4:55 AM 41.0 °F - 33.8 °F 76% 30.22 in 10.0 mi Calm Calm - N/A   Clear
5:15 AM 41.0 °F - 33.8 °F 76% 30.22 in 10.0 mi Calm Calm - N/A   Clear
5:35 AM 41.0 °F - 32.0 °F 70% 30.22 in 10.0 mi Calm Calm - N/A   Clear
5:55 AM 41.0 °F - 33.8 °F 76% 30.23 in 10.0 mi Calm Calm - N/A   Clear
6:15 AM 41.0 °F - 33.8 °F 76% 30.23 in 10.0 mi Calm Calm - N/A   Clear
6:35 AM 42.8 °F - 33.8 °F 70% 30.24 in 10.0 mi Calm Calm - N/A   Clear
6:55 AM 46.4 °F 44.3 °F 39.2 °F 76% 30.24 in 10.0 mi West 4.6 mph - N/A   Clear
7:15 AM 50.0 °F - 41.0 °F 71% 30.25 in 10.0 mi West 4.6 mph - N/A   Clear
7:35 AM 53.6 °F - 41.0 °F 62% 30.25 in 10.0 mi West 3.5 mph - N/A   Clear
7:55 AM 55.4 °F - 39.2 °F 54% 30.25 in 10.0 mi West 4.6 mph - N/A   Clear
8:15 AM 59.0 °F - 41.0 °F 51% 30.26 in 10.0 mi West 4.6 mph - N/A   Clear
8:35 AM 64.4 °F - 39.2 °F 40% 30.26 in 10.0 mi West 4.6 mph - N/A   Clear
8:55 AM 68.0 °F - 35.6 °F 30% 30.27 in 10.0 mi West 4.6 mph - N/A   Clear
9:15 AM 69.8 °F - 30.2 °F 23% 30.27 in 10.0 mi West 4.6 mph - N/A   Clear
9:35 AM 69.8 °F - 32.0 °F 25% 30.27 in 10.0 mi West 3.5 mph - N/A   Clear
9:55 AM 69.8 °F - 30.2 °F 23% 30.27 in 10.0 mi West 3.5 mph - N/A   Clear
10:15 AM 71.6 °F - 30.2 °F 22% 30.27 in 10.0 mi NW 4.6 mph - N/A   Clear
10:35 AM 71.6 °F - 32.0 °F 23% 30.27 in 10.0 mi NE 6.9 mph - N/A   Clear
10:55 AM 73.4 °F - 32.0 °F 22% 30.27 in 10.0 mi East 10.4 mph - N/A   Clear
11:15 AM 73.4 °F - 32.0 °F 22% 30.27 in 10.0 mi NE 10.4 mph 17.3 mph N/A   Clear
11:35 AM 73.4 °F - 32.0 °F 22% 30.27 in 10.0 mi East 9.2 mph 18.4 mph N/A   Clear
11:55 AM 75.2 °F - 32.0 °F 21% 30.27 in 10.0 mi ENE 11.5 mph 17.3 mph N/A   Clear
12:15 PM 75.2 °F - 32.0 °F 21% 30.28 in 10.0 mi NE 10.4 mph 16.1 mph N/A   Scattered Clouds
12:35 PM 73.4 °F - 32.0 °F 22% 30.27 in 10.0 mi East 8.1 mph - N/A   Scattered Clouds
12:55 PM 73.4 °F - 32.0 °F 22% 30.27 in 10.0 mi WSW 6.9 mph - N/A   Mostly Cloudy
1:15 PM 71.6 °F - 33.8 °F 25% 30.27 in 10.0 mi West 6.9 mph - N/A   Mostly Cloudy
1:35 PM 73.4 °F - 33.8 °F 23% 30.26 in 10.0 mi WSW 5.8 mph - N/A   Mostly Cloudy
1:55 PM 73.4 °F - 32.0 °F 22% 30.27 in 10.0 mi ENE 5.8 mph 26.5 mph N/A   Mostly Cloudy
2:15 PM 73.4 °F - 35.6 °F 25% 30.26 in 10.0 mi West 8.1 mph - N/A   Mostly Cloudy
2:35 PM 73.4 °F - 33.8 °F 23% 30.26 in 10.0 mi West 10.4 mph - N/A   Scattered Clouds
2:55 PM 73.4 °F - 33.8 °F 23% 30.26 in 10.0 mi West 10.4 mph - N/A   Mostly Cloudy
3:15 PM 73.4 °F - 33.8 °F 23% 30.25 in 10.0 mi West 11.5 mph - N/A   Mostly Cloudy
3:35 PM 73.4 °F - 33.8 °F 23% 30.25 in 10.0 mi West 12.7 mph - N/A   Mostly Cloudy
3:55 PM 73.4 °F - 33.8 °F 23% 30.25 in 10.0 mi West 15.0 mph - N/A   Scattered Clouds
4:15 PM 73.4 °F - 33.8 °F 23% 30.24 in 10.0 mi West 16.1 mph - N/A   Scattered Clouds
4:35 PM 73.4 °F - 33.8 °F 23% 30.25 in 10.0 mi West 16.1 mph 20.7 mph N/A   Scattered Clouds
4:55 PM 71.6 °F - 33.8 °F 25% 30.24 in 10.0 mi West 13.8 mph 20.7 mph N/A   Clear
5:15 PM 71.6 °F - 33.8 °F 25% 30.24 in 10.0 mi West 13.8 mph 20.7 mph N/A   Clear
5:35 PM 71.6 °F - 33.8 °F 25% 30.24 in 10.0 mi WSW 6.9 mph - N/A   Clear
5:55 PM 71.6 °F - 35.6 °F 27% 30.24 in 10.0 mi WSW 9.2 mph - N/A   Clear
6:15 PM 69.8 °F - 35.6 °F 28% 30.24 in 10.0 mi West 12.7 mph - N/A   Clear
6:35 PM 69.8 °F - 35.6 °F 28% 30.25 in 10.0 mi West 9.2 mph - N/A   Clear
6:55 PM 68.0 °F - 35.6 °F 30% 30.25 in 10.0 mi West 11.5 mph - N/A   Clear
7:15 PM 68.0 °F - 33.8 °F 28% 30.25 in 10.0 mi West 6.9 mph - N/A   Clear
7:35 PM 64.4 °F - 37.4 °F 37% 30.25 in 10.0 mi West 6.9 mph - N/A   Clear
7:55 PM 62.6 °F - 37.4 °F 39% 30.26 in 10.0 mi West 5.8 mph - N/A   Clear
8:15 PM 62.6 °F - 37.4 °F 39% 30.27 in 10.0 mi WSW 4.6 mph - N/A   Clear
8:35 PM 60.8 °F - 35.6 °F 39% 30.28 in 10.0 mi West 5.8 mph - N/A   Clear
8:55 PM 60.8 °F - 35.6 °F 39% 30.28 in 10.0 mi WSW 4.6 mph - N/A   Clear
9:15 PM 59.0 °F - 35.6 °F 42% 30.29 in 10.0 mi West 4.6 mph - N/A   Clear
9:35 PM 59.0 °F - 35.6 °F 42% 30.29 in 10.0 mi SSW 3.5 mph - N/A   Clear
9:55 PM 57.2 °F - 35.6 °F 44% 30.30 in 10.0 mi Calm Calm - N/A   Clear
10:15 PM 57.2 °F - 33.8 °F 41% 30.30 in 10.0 mi SW 3.5 mph - N/A   Clear
10:35 PM 53.6 °F - 33.8 °F 47% 30.30 in 10.0 mi Calm Calm - N/A   Clear
11:15 PM 51.8 °F - 33.8 °F 50% 30.30 in 10.0 mi Calm Calm - N/A   Clear
11:35 PM 51.8 °F - 33.8 °F 50% 30.30 in 10.0 mi Calm Calm - N/A   Clear
11:55 PM 50.0 °F - 32.0 °F 50% 30.30 in 10.0 mi Calm Calm - N/A   Clear